createdAt,value
2023-02-23T00:00:30.401Z,50.30
2023-02-23T00:03:01.840Z,50.46
2023-02-23T00:05:31.653Z,50.32
2023-02-23T00:07:59.818Z,50.63
2023-02-23T00:10:31.649Z,50.64
2023-02-23T00:13:00.409Z,50.76
2023-02-23T00:15:32.005Z,50.95
2023-02-23T00:18:00.988Z,51.02
2023-02-23T00:20:29.497Z,51.13
2023-02-23T00:22:58.240Z,51.36
2023-02-23T00:25:26.595Z,51.58
2023-02-23T00:27:55.933Z,51.84
2023-02-23T00:30:24.641Z,51.97
2023-02-23T00:32:53.240Z,52.31
2023-02-23T00:35:21.418Z,52.48
2023-02-23T00:37:53.270Z,52.61
2023-02-23T00:40:23.051Z,52.82
2023-02-23T00:42:52.489Z,52.98
2023-02-23T00:45:21.646Z,53.12
2023-02-23T00:47:49.861Z,53.17
2023-02-23T00:50:18.193Z,53.40
2023-02-23T00:52:48.018Z,53.51
2023-02-23T00:55:16.254Z,53.74
2023-02-23T00:57:45.008Z,53.69
2023-02-23T01:00:16.885Z,53.97
2023-02-23T01:02:45.471Z,54.13
2023-02-23T01:05:20.456Z,54.29
2023-02-23T01:07:49.831Z,54.36
2023-02-23T01:10:21.142Z,54.57
2023-02-23T01:12:54.755Z,54.74
2023-02-23T01:15:24.535Z,54.87
2023-02-23T01:17:52.831Z,54.90
2023-02-23T01:20:21.124Z,55.05
2023-02-23T01:22:50.176Z,55.24
2023-02-23T01:25:18.786Z,55.32
2023-02-23T01:27:47.164Z,55.32
2023-02-23T01:30:15.711Z,55.48
2023-02-23T01:32:45.925Z,55.67
2023-02-23T01:35:14.368Z,56.00
2023-02-23T01:37:43.232Z,56.07
2023-02-23T01:40:28.839Z,56.07
2023-02-23T01:42:58.782Z,56.11
2023-02-23T01:45:29.695Z,56.23
2023-02-23T01:48:03.234Z,56.27
2023-02-23T01:50:57.169Z,56.51
2023-02-23T01:53:26.963Z,56.60
2023-02-23T01:55:58.893Z,56.71
2023-02-23T01:58:29.441Z,56.82
2023-02-23T02:01:01.679Z,57.04
2023-02-23T02:03:35.404Z,57.24
2023-02-23T02:06:04.345Z,57.24
2023-02-23T02:08:33.165Z,57.35
2023-02-23T02:11:25.715Z,57.40
2023-02-23T02:13:55.111Z,57.62
2023-02-23T02:16:49.814Z,57.73
2023-02-23T02:19:53.450Z,57.80
2023-02-23T02:22:27.815Z,58.00
2023-02-23T02:25:16.851Z,58.19
2023-02-23T02:28:04.285Z,58.21
2023-02-23T02:31:15.747Z,58.33
2023-02-23T02:34:16.027Z,58.55
2023-02-23T02:36:58.431Z,58.72
2023-02-23T02:40:16.187Z,58.73
2023-02-23T02:43:11.590Z,58.90
2023-02-23T02:45:45.997Z,58.89
2023-02-23T02:48:31.318Z,59.09
2023-02-23T02:51:22.169Z,59.03
2023-02-23T02:54:10.643Z,59.22
2023-02-23T02:56:40.755Z,59.13
2023-02-23T02:59:30.709Z,59.19
2023-02-23T03:02:17.754Z,59.41
2023-02-23T03:05:04.962Z,59.45
2023-02-23T03:07:59.786Z,59.60
2023-02-23T03:10:55.947Z,59.79
2023-02-23T03:14:25.172Z,59.82
2023-02-23T03:17:18.492Z,59.91
2023-02-23T03:20:30.107Z,59.98
2023-02-23T03:23:25.377Z,59.96
2023-02-23T03:26:33.733Z,59.98
2023-02-23T03:29:27.973Z,60.34
2023-02-23T03:32:44.356Z,60.33
2023-02-23T03:35:51.338Z,60.70
2023-02-23T03:39:05.317Z,60.79
2023-02-23T03:41:53.042Z,60.90
2023-02-23T03:44:53.239Z,61.14
2023-02-23T03:47:42.666Z,61.09
2023-02-23T03:50:36.398Z,61.20
2023-02-23T03:53:23.618Z,61.24
2023-02-23T03:56:12.117Z,61.46
2023-02-23T03:59:04.168Z,61.41
2023-02-23T04:01:51.367Z,61.59
2023-02-23T04:04:38.284Z,61.46
2023-02-23T04:07:25.632Z,61.51
2023-02-23T04:10:13.374Z,61.68
2023-02-23T04:13:12.922Z,61.76
2023-02-23T04:16:00.427Z,61.83
2023-02-23T04:18:34.602Z,61.80
2023-02-23T04:21:03.329Z,62.08
2023-02-23T04:23:32.445Z,62.19
2023-02-23T04:26:00.728Z,62.14
2023-02-23T04:28:29.343Z,62.14
2023-02-23T04:30:57.580Z,62.36
2023-02-23T04:33:27.311Z,62.21
2023-02-23T04:35:55.638Z,62.21
2023-02-23T04:38:23.883Z,62.35
2023-02-23T04:40:52.287Z,62.20
2023-02-23T04:43:20.873Z,62.29
2023-02-23T04:45:49.614Z,61.97
2023-02-23T04:48:17.985Z,62.03
2023-02-23T04:50:46.747Z,61.96
2023-02-23T04:53:14.955Z,62.01
2023-02-23T04:55:44.809Z,61.84
2023-02-23T04:58:14.783Z,61.82
2023-02-23T05:00:43.327Z,61.85
2023-02-23T05:03:12.323Z,61.73
2023-02-23T05:05:40.621Z,61.82
2023-02-23T05:08:09.890Z,61.83
2023-02-23T05:10:40.228Z,61.87
2023-02-23T05:13:08.918Z,61.81
2023-02-23T05:15:38.746Z,62.09
2023-02-23T05:18:08.258Z,62.02
2023-02-23T05:20:36.708Z,62.19
2023-02-23T05:23:06.531Z,61.95
2023-02-23T05:25:35.837Z,61.88
2023-02-23T05:28:05.400Z,62.02
2023-02-23T05:30:34.901Z,62.08
2023-02-23T05:33:03.443Z,61.94
2023-02-23T05:35:31.956Z,61.96
2023-02-23T05:38:00.762Z,61.88
2023-02-23T05:40:29.075Z,61.68
2023-02-23T05:43:00.990Z,61.40
2023-02-23T05:45:30.013Z,61.24
2023-02-23T05:47:59.889Z,61.15
2023-02-23T05:50:28.276Z,60.91
2023-02-23T05:52:56.631Z,60.70
2023-02-23T05:55:27.366Z,60.70
2023-02-23T05:57:56.083Z,60.51
2023-02-23T06:00:24.637Z,60.28
2023-02-23T06:02:55.791Z,59.98
2023-02-23T06:05:24.877Z,59.59
2023-02-23T06:07:54.000Z,59.26
2023-02-23T06:10:23.733Z,58.83
2023-02-23T06:12:52.300Z,58.42
2023-02-23T06:15:23.627Z,58.04
2023-02-23T06:17:53.718Z,57.48
2023-02-23T06:20:22.870Z,57.09
2023-02-23T06:22:53.076Z,56.48
2023-02-23T06:25:21.981Z,55.97
2023-02-23T06:27:53.775Z,55.36
2023-02-23T06:33:16.701Z,54.20
2023-02-23T06:35:46.627Z,53.97
2023-02-23T06:38:14.841Z,53.46
2023-02-23T06:40:44.301Z,52.95
2023-02-23T06:43:12.816Z,52.70
2023-02-23T06:45:42.201Z,52.21
2023-02-23T06:48:10.773Z,51.94
2023-02-23T06:50:40.911Z,51.36
2023-02-23T06:53:09.619Z,50.55
2023-02-23T06:55:38.267Z,50.00
2023-02-23T06:58:08.079Z,49.84
2023-02-23T07:00:37.558Z,49.09
2023-02-23T07:03:07.069Z,48.54
2023-02-23T07:05:35.399Z,48.00
2023-02-23T07:08:04.046Z,47.86
2023-02-23T07:10:32.693Z,47.46
2023-02-23T07:13:01.551Z,47.01
2023-02-23T07:15:30.019Z,46.65
2023-02-23T07:17:58.271Z,45.97
2023-02-23T07:20:26.574Z,45.86
2023-02-23T07:22:55.010Z,45.63
2023-02-23T07:25:23.485Z,44.79
2023-02-23T07:27:54.258Z,44.44
2023-02-23T07:30:25.414Z,43.92
2023-02-23T07:32:53.932Z,43.84
2023-02-23T07:35:22.463Z,43.67
2023-02-23T07:37:51.026Z,42.90
2023-02-23T07:40:19.526Z,42.53
2023-02-23T07:42:47.806Z,42.17
2023-02-23T07:45:16.948Z,41.35
2023-02-23T07:47:45.246Z,41.30
2023-02-23T07:50:14.160Z,41.03
2023-02-23T07:52:43.127Z,40.70
2023-02-23T07:55:11.898Z,40.69
2023-02-23T07:57:40.246Z,40.33
2023-02-23T08:00:09.716Z,40.26
2023-02-23T08:02:42.136Z,40.08
2023-02-23T08:05:11.897Z,40.07
2023-02-23T08:07:42.179Z,39.47
2023-02-23T08:10:11.652Z,39.08
2023-02-23T08:12:41.470Z,38.80
2023-02-23T08:15:10.223Z,38.70
2023-02-23T08:17:41.874Z,38.55
2023-02-23T08:20:11.501Z,38.50
2023-02-23T08:22:49.232Z,38.24
2023-02-23T08:25:18.773Z,37.66
2023-02-23T08:27:52.219Z,37.37
2023-02-23T08:30:24.552Z,37.25
2023-02-23T08:32:53.104Z,37.20
2023-02-23T08:35:21.834Z,37.17
2023-02-23T08:37:50.087Z,37.07
2023-02-23T08:40:20.940Z,36.95
2023-02-23T08:42:52.985Z,36.60
2023-02-23T08:45:21.300Z,36.21
2023-02-23T08:47:49.859Z,35.97
2023-02-23T08:50:18.554Z,36.04
2023-02-23T08:52:46.887Z,35.70
2023-02-23T08:55:22.746Z,35.23
2023-02-23T08:57:50.925Z,35.06
2023-02-23T09:00:19.887Z,34.80
2023-02-23T09:02:49.858Z,34.52
2023-02-23T09:05:18.344Z,34.05
2023-02-23T09:07:49.275Z,33.78
2023-02-23T09:10:20.152Z,33.67
2023-02-23T09:12:48.447Z,33.87
2023-02-23T09:15:17.250Z,33.82
2023-02-23T09:17:47.709Z,33.61
2023-02-23T09:20:17.247Z,33.53
2023-02-23T09:22:48.759Z,33.24
2023-02-23T09:25:19.309Z,33.04
2023-02-23T09:27:49.275Z,32.98
2023-02-23T09:30:20.850Z,32.75
2023-02-23T09:32:50.398Z,32.83
2023-02-23T09:35:19.703Z,32.86
2023-02-23T09:37:49.745Z,32.55
2023-02-23T09:40:26.337Z,32.25
2023-02-23T09:43:03.605Z,32.03
2023-02-23T09:45:31.857Z,31.56
2023-02-23T09:48:10.602Z,31.40
2023-02-23T09:50:40.550Z,31.31
2023-02-23T09:53:21.169Z,31.05
2023-02-23T09:55:49.757Z,31.11
2023-02-23T09:58:31.829Z,31.12
2023-02-23T10:01:58.560Z,31.14
2023-02-23T10:04:39.862Z,30.97
2023-02-23T10:07:19.302Z,30.94
2023-02-23T10:10:25.011Z,30.74
2023-02-23T10:13:14.137Z,30.32
2023-02-23T10:15:52.848Z,30.43
2023-02-23T10:18:45.261Z,30.62
2023-02-23T10:21:18.995Z,30.44
2023-02-23T10:23:54.928Z,30.45
2023-02-23T10:26:25.547Z,30.54
2023-02-23T10:28:55.158Z,30.23
2023-02-23T10:31:42.542Z,30.33
2023-02-23T10:34:17.124Z,29.98
2023-02-23T10:37:01.948Z,29.95
2023-02-23T10:39:30.600Z,29.56
2023-02-23T10:42:04.117Z,29.35
2023-02-23T10:44:32.948Z,29.41
2023-02-23T10:47:11.853Z,29.33
2023-02-23T10:49:55.591Z,29.03
2023-02-23T10:52:32.505Z,28.90
2023-02-23T10:55:03.558Z,28.68
2023-02-23T10:57:39.976Z,28.73
2023-02-23T11:00:20.478Z,28.62
2023-02-23T11:02:48.810Z,29.32
2023-02-23T11:05:33.628Z,30.02
2023-02-23T11:08:25.241Z,29.78
2023-02-23T11:10:57.508Z,29.09
2023-02-23T11:13:40.696Z,28.57
2023-02-23T11:16:13.339Z,28.21
2023-02-23T11:18:43.410Z,28.38
2023-02-23T11:21:12.812Z,28.28
2023-02-23T11:23:41.124Z,28.08
2023-02-23T11:26:38.132Z,28.06
2023-02-23T11:29:47.576Z,28.11
2023-02-23T11:32:19.338Z,27.96
2023-02-23T11:34:49.507Z,27.63
2023-02-23T11:37:23.419Z,27.34
2023-02-23T11:39:55.529Z,27.29
2023-02-23T11:42:28.286Z,27.04
2023-02-23T11:45:03.404Z,26.68
2023-02-23T11:47:32.914Z,26.14
2023-02-23T11:50:01.587Z,25.66
2023-02-23T11:52:30.130Z,25.61
2023-02-23T11:55:02.068Z,25.57
2023-02-23T11:57:40.106Z,25.54
2023-02-23T12:00:13.251Z,25.23
2023-02-23T12:03:00.227Z,25.33
2023-02-23T12:05:32.693Z,25.22
2023-02-23T12:08:11.624Z,25.19
2023-02-23T12:10:44.467Z,24.88
2023-02-23T12:13:21.773Z,24.80
2023-02-23T12:16:05.715Z,24.53
2023-02-23T12:18:46.805Z,24.21
2023-02-23T12:21:36.897Z,23.87
2023-02-23T12:24:08.491Z,23.65
2023-02-23T12:26:49.689Z,23.54
2023-02-23T12:29:31.934Z,23.29
2023-02-23T12:32:03.200Z,23.20
2023-02-23T12:34:43.035Z,23.12
2023-02-23T12:37:28.242Z,23.22
2023-02-23T12:39:59.151Z,23.08
2023-02-23T12:42:38.953Z,22.88
2023-02-23T12:45:16.414Z,22.98
2023-02-23T12:47:56.460Z,22.90
2023-02-23T12:50:34.765Z,22.95
2023-02-23T12:53:07.156Z,22.78
2023-02-23T12:55:42.140Z,22.59
2023-02-23T12:58:28.860Z,22.60
2023-02-23T13:01:12.350Z,22.43
2023-02-23T13:04:17.584Z,22.48
2023-02-23T13:07:18.086Z,22.33
2023-02-23T13:10:01.186Z,22.08
2023-02-23T13:12:44.533Z,22.19
2023-02-23T13:15:48.790Z,22.04
2023-02-23T13:18:24.884Z,22.15
2023-02-23T13:21:03.914Z,22.30
2023-02-23T13:23:47.466Z,22.54
2023-02-23T13:26:34.804Z,22.36
2023-02-23T13:29:04.101Z,22.31
2023-02-23T13:31:37.201Z,22.25
2023-02-23T13:34:10.468Z,22.25
2023-02-23T13:36:40.841Z,22.13
2023-02-23T13:39:47.904Z,22.07
2023-02-23T13:42:16.569Z,22.02
2023-02-23T13:44:53.731Z,21.65
2023-02-23T13:47:46.678Z,21.53
2023-02-23T13:50:22.732Z,21.45
2023-02-23T13:52:55.836Z,21.33
2023-02-23T13:55:29.437Z,21.19
2023-02-23T13:58:06.872Z,21.28
2023-02-23T14:00:36.896Z,21.51
2023-02-23T14:03:05.903Z,21.61
2023-02-23T14:05:44.183Z,21.63
2023-02-23T14:08:26.642Z,21.78
2023-02-23T14:10:57.477Z,21.80
2023-02-23T14:13:28.971Z,21.83
2023-02-23T14:16:17.994Z,21.72
2023-02-23T14:19:12.594Z,21.38
2023-02-23T14:21:52.645Z,21.44
2023-02-23T14:24:25.181Z,21.62
2023-02-23T14:27:12.426Z,21.94
2023-02-23T14:29:41.639Z,22.11
2023-02-23T14:32:13.066Z,22.22
2023-02-23T14:34:43.432Z,22.45
2023-02-23T14:37:22.300Z,22.42
2023-02-23T14:39:51.362Z,22.45
2023-02-23T14:42:25.150Z,22.50
2023-02-23T14:44:55.300Z,22.45
2023-02-23T14:47:26.038Z,22.99
2023-02-23T14:49:58.751Z,23.17
2023-02-23T14:52:27.604Z,23.59
2023-02-23T14:55:27.987Z,23.56
2023-02-23T14:57:58.291Z,23.85
2023-02-23T15:00:33.202Z,24.13
2023-02-23T15:03:12.750Z,24.28
2023-02-23T15:05:55.858Z,24.22
2023-02-23T15:08:29.001Z,24.65
2023-02-23T15:11:03.651Z,24.75
2023-02-23T15:16:08.162Z,25.18
2023-02-23T15:18:38.527Z,25.36
2023-02-23T15:21:13.873Z,25.29
2023-02-23T15:23:44.696Z,25.64
2023-02-23T15:26:32.102Z,25.97
2023-02-23T15:29:09.991Z,25.92
2023-02-23T15:31:50.266Z,26.04
2023-02-23T15:34:21.282Z,26.31
2023-02-23T15:37:00.060Z,26.32
2023-02-23T15:39:57.057Z,26.49
2023-02-23T15:42:35.821Z,26.79
2023-02-23T15:45:11.801Z,27.15
2023-02-23T15:47:40.077Z,27.43
2023-02-23T15:50:21.982Z,27.72
2023-02-23T15:53:00.001Z,28.07
2023-02-23T15:55:31.908Z,28.52
2023-02-23T15:58:00.417Z,28.88
2023-02-23T16:00:38.447Z,29.21
2023-02-23T16:03:09.000Z,29.54
2023-02-23T16:05:46.515Z,29.80
2023-02-23T16:08:23.870Z,30.24
2023-02-23T16:11:23.154Z,30.72
2023-02-23T16:13:51.736Z,31.17
2023-02-23T16:16:25.634Z,31.57
2023-02-23T16:19:01.315Z,31.82
2023-02-23T16:21:33.146Z,32.32
2023-02-23T16:24:22.346Z,32.38
2023-02-23T16:26:57.291Z,32.34
2023-02-23T16:29:42.068Z,32.83
2023-02-23T16:32:15.992Z,33.10
2023-02-23T16:34:51.404Z,33.10
2023-02-23T16:37:23.314Z,33.54
2023-02-23T16:39:52.021Z,33.58
2023-02-23T16:42:27.721Z,33.79
2023-02-23T16:44:57.623Z,33.91
2023-02-23T16:47:40.675Z,34.41
2023-02-23T16:50:20.335Z,34.31
2023-02-23T16:52:53.821Z,34.52
2023-02-23T16:55:26.153Z,34.79
2023-02-23T16:58:00.576Z,35.00
2023-02-23T17:00:31.805Z,35.06
2023-02-23T17:03:01.527Z,35.03
2023-02-23T17:05:30.461Z,35.20
2023-02-23T17:07:59.745Z,35.30
2023-02-23T17:10:30.987Z,35.45
2023-02-23T17:13:07.102Z,35.92
2023-02-23T17:15:38.158Z,35.90
2023-02-23T17:18:06.499Z,36.15
2023-02-23T17:20:34.748Z,36.27
2023-02-23T17:23:03.282Z,36.56
2023-02-23T17:25:31.638Z,36.58
2023-02-23T17:28:00.162Z,37.17
2023-02-23T17:30:28.546Z,37.11
2023-02-23T17:32:58.064Z,37.55
2023-02-23T17:35:28.148Z,37.81
2023-02-23T17:37:57.990Z,37.76
2023-02-23T17:40:29.614Z,38.14
2023-02-23T17:42:59.265Z,38.28
2023-02-23T17:45:27.959Z,38.53
2023-02-23T17:47:56.685Z,38.69
2023-02-23T17:50:27.207Z,39.11
2023-02-23T17:52:56.861Z,39.38
2023-02-23T17:55:26.931Z,39.83
2023-02-23T17:57:55.111Z,39.99
2023-02-23T18:00:25.204Z,40.34
2023-02-23T18:02:55.612Z,40.45
2023-02-23T18:05:24.132Z,40.88
2023-02-23T18:07:52.616Z,41.09
2023-02-23T18:10:25.597Z,41.26
2023-02-23T18:12:55.439Z,41.53
2023-02-23T18:15:24.550Z,41.98
2023-02-23T18:17:54.741Z,42.21
2023-02-23T18:20:24.855Z,42.47
2023-02-23T18:22:53.187Z,42.39
2023-02-23T18:25:28.733Z,42.81
2023-02-23T18:27:58.637Z,43.14
2023-02-23T18:30:29.881Z,43.54
2023-02-23T18:33:01.667Z,43.92
2023-02-23T18:35:37.992Z,44.01
2023-02-23T18:38:09.141Z,44.41
2023-02-23T18:40:38.961Z,44.49
2023-02-23T18:43:08.220Z,44.90
2023-02-23T18:45:36.988Z,45.01
2023-02-23T18:48:10.204Z,45.17
2023-02-23T18:50:38.789Z,45.72
2023-02-23T18:53:09.212Z,46.11
2023-02-23T18:55:38.713Z,46.20
2023-02-23T18:58:07.938Z,46.26
2023-02-23T19:00:42.784Z,46.45
2023-02-23T19:03:18.795Z,46.62
2023-02-23T19:05:53.153Z,46.53
2023-02-23T19:08:21.839Z,46.72
2023-02-23T19:10:52.249Z,46.75
2023-02-23T19:13:22.404Z,46.91
2023-02-23T19:15:53.603Z,46.83
2023-02-23T19:18:22.411Z,46.91
2023-02-23T19:20:55.497Z,47.27
2023-02-23T19:23:24.138Z,46.99
2023-02-23T19:25:52.793Z,47.06
2023-02-23T19:28:22.749Z,47.36
2023-02-23T19:31:00.394Z,47.21
2023-02-23T19:33:32.704Z,47.36
2023-02-23T19:36:04.895Z,47.28
2023-02-23T19:38:33.930Z,47.40
2023-02-23T19:41:06.142Z,47.62
2023-02-23T19:43:34.551Z,47.69
2023-02-23T19:46:10.736Z,48.07
2023-02-23T19:48:39.212Z,48.23
2023-02-23T19:51:10.965Z,48.36
2023-02-23T19:53:39.660Z,48.57
2023-02-23T19:56:11.417Z,48.51
2023-02-23T19:58:46.792Z,48.86
2023-02-23T20:01:18.383Z,48.88
2023-02-23T20:03:49.688Z,49.24
2023-02-23T20:06:17.948Z,49.15
2023-02-23T20:08:48.389Z,49.38
2023-02-23T20:11:18.722Z,49.76
2023-02-23T20:13:51.053Z,49.98
2023-02-23T20:16:19.842Z,50.23
2023-02-23T20:18:51.973Z,50.75
2023-02-23T20:21:23.562Z,50.85
2023-02-23T20:23:52.401Z,51.14
2023-02-23T20:26:23.216Z,51.22
2023-02-23T20:28:51.745Z,51.35
2023-02-23T20:31:25.845Z,51.68
2023-02-23T20:33:56.630Z,51.86
2023-02-23T20:36:25.151Z,52.01
2023-02-23T20:38:53.636Z,52.08
2023-02-23T20:41:22.914Z,52.24
2023-02-23T20:43:54.376Z,52.46
2023-02-23T20:46:24.651Z,52.45
2023-02-23T20:48:52.957Z,52.73
2023-02-23T20:51:21.658Z,52.73
2023-02-23T20:53:50.178Z,53.02
2023-02-23T20:56:19.201Z,53.41
2023-02-23T20:58:48.765Z,53.44
2023-02-23T21:01:20.798Z,53.54
2023-02-23T21:03:51.686Z,53.71
2023-02-23T21:06:21.875Z,53.73
2023-02-23T21:08:50.667Z,53.72
2023-02-23T21:11:22.289Z,53.88
2023-02-23T21:13:51.727Z,54.02
2023-02-23T21:16:20.774Z,54.03
2023-02-23T21:19:04.073Z,54.03
2023-02-23T21:21:40.134Z,54.16
2023-02-23T21:24:08.830Z,54.10
2023-02-23T21:26:37.243Z,54.29
2023-02-23T21:29:08.238Z,54.46
2023-02-23T21:31:41.743Z,54.66
2023-02-23T21:34:11.119Z,54.74
2023-02-23T21:36:39.267Z,54.82
2023-02-23T21:39:08.737Z,54.90
2023-02-23T21:41:38.332Z,55.07
2023-02-23T21:44:07.920Z,55.10
2023-02-23T21:46:40.709Z,54.99
2023-02-23T21:49:10.018Z,55.06
2023-02-23T21:51:38.708Z,55.17
2023-02-23T21:54:07.742Z,55.24
2023-02-23T21:56:36.860Z,55.28
2023-02-23T21:59:06.200Z,55.27
2023-02-23T22:01:36.040Z,55.43
2023-02-23T22:04:05.884Z,55.50
2023-02-23T22:06:37.191Z,55.68
2023-02-23T22:09:12.760Z,55.80
2023-02-23T22:11:45.628Z,55.66
2023-02-23T22:14:16.725Z,55.97
2023-02-23T22:16:46.621Z,55.90
2023-02-23T22:19:16.616Z,55.96
2023-02-23T22:21:47.957Z,56.08
2023-02-23T22:24:16.999Z,56.08
2023-02-23T22:26:50.762Z,55.93
2023-02-23T22:29:20.665Z,56.04
2023-02-23T22:31:49.224Z,56.12
2023-02-23T22:34:18.535Z,56.08
2023-02-23T22:36:50.283Z,56.26
2023-02-23T22:39:20.107Z,56.41
2023-02-23T22:41:48.540Z,56.48
2023-02-23T22:44:19.488Z,56.47
2023-02-23T22:46:52.326Z,56.54
2023-02-23T22:49:20.915Z,56.73
2023-02-23T22:51:50.638Z,56.80
2023-02-23T22:54:23.852Z,57.14
2023-02-23T22:56:52.022Z,57.13
2023-02-23T22:59:20.521Z,57.19
2023-02-23T23:01:51.285Z,57.48
2023-02-23T23:04:22.455Z,57.59
2023-02-23T23:06:50.825Z,57.69
2023-02-23T23:09:21.234Z,57.71
2023-02-23T23:11:51.011Z,57.86
2023-02-23T23:14:25.213Z,57.99
2023-02-23T23:16:55.302Z,58.09
2023-02-23T23:19:24.459Z,58.21
2023-02-23T23:21:55.450Z,58.36
2023-02-23T23:24:27.257Z,58.33
2023-02-23T23:26:56.230Z,58.65
2023-02-23T23:29:25.973Z,58.70
2023-02-23T23:31:57.318Z,58.77
2023-02-23T23:34:25.778Z,59.03
2023-02-23T23:36:58.225Z,59.02
2023-02-23T23:39:27.302Z,59.08
2023-02-23T23:41:55.529Z,59.33
2023-02-23T23:44:25.063Z,59.53
2023-02-23T23:46:53.464Z,59.47
2023-02-23T23:49:26.696Z,59.61
2023-02-23T23:51:57.304Z,59.74
2023-02-23T23:54:28.255Z,59.97
2023-02-23T23:57:01.573Z,60.21
2023-02-23T23:59:30.176Z,60.49
